Zurich, Montana
Current Conditions -  °F | °C
As of 7:53 PM on Monday 20 Oct 2014 (Local Time) from KHVR Reporting Station
Clear Clear  
Wind Chill: 55°   Ceiling: Unl
Heat Index: 55°   Visibility: 10mi
Dew Point: 42°   Wind: 6mph
Humidity: 62%   Direction: 160°SSE
Pressure: 29.7"   Gusts: NA
Location:  48.58°N, 109.03°W
Report Text: KHVR 210153Z AUTO 16005KT 10SM CLR 13/06 A2970 RMK AO2 SLP067 T01280056
Loading
Personal Weather Stations






























Interactive Weather Map
Tropical Storm Tracking
New forecast layout! Learn more

10-Day Weather Forecast

Advertisements
Track Severe Weather on mobile